Herk-de-Stad, Belgium
Current Conditions -  °F | °C
As of 6:25 PM on Monday 24 Nov 2014 (Local Time) from EBDT Reporting Station
Scattered Clouds Scattered Clouds  
Wind Chill:   Ceiling: Unl
Heat Index:   Visibility: 6mi
Dew Point:   Wind: 2mph
Humidity: 81%   Direction: NA
Pressure: 30.33"   Gusts: NA
Location:  50.94°N, 5.17°E
Report Text: EBDT 241725Z VRB02KT 9999 SCT220 06/03 Q1027 BLU BLU
Loading
Personal Weather Stations






























Interactive Weather Map New forecast layout! Learn more

10-Day Weather Forecast

Advertisements
Track Severe Weather on mobile